Sykesville, Pennsylvania
Current Conditions -  °F | °C
As of 7:42 AM on Monday 26 Jan 2015 (Local Time) from KDUJ Reporting Station
Light Snow Light Snow  
Wind Chill:   Ceiling: 2900
Heat Index: 17°   Visibility: 1.2mi
Dew Point: 13°   Wind: 13mph
Humidity: 84%   Direction: 90°E
Pressure: 29.72"   Gusts: NA
Location:  41.05°N, 78.82°W
Report Text: KDUJ 261242Z AUTO 09011KT 1 1/4SM -SN BR OVC029 M08/M11 A2972 RMK AO2 SNB25 P0000 T10831106
Loading
Personal Weather Stations






























Interactive Weather Map New forecast layout! Learn more

10-Day Weather Forecast

Advertisements
Track Severe Weather on mobile